createdAt,value
2023-05-04T00:01:54.561Z,14.60
2023-05-04T00:06:57.618Z,14.60
2023-05-04T00:12:00.589Z,14.50
2023-05-04T00:17:06.578Z,14.50
2023-05-04T00:22:09.634Z,14.50
2023-05-04T00:27:12.707Z,14.50
2023-05-04T00:32:15.681Z,14.50
2023-05-04T00:37:18.810Z,14.50
2023-05-04T00:42:21.825Z,14.40
2023-05-04T00:47:24.908Z,14.40
2023-05-04T00:52:29.259Z,14.40
2023-05-04T00:57:32.234Z,14.40
2023-05-04T01:02:35.627Z,14.30
2023-05-04T01:07:56.186Z,14.20
2023-05-04T01:13:11.734Z,14.30
2023-05-04T01:18:15.451Z,14.20
2023-05-04T01:23:18.508Z,14.20
2023-05-04T01:28:34.972Z,14.20
2023-05-04T01:33:38.723Z,14.20
2023-05-04T01:38:42.751Z,14.20
2023-05-04T01:43:45.675Z,14.20
2023-05-04T01:48:48.745Z,14.20
2023-05-04T01:53:51.776Z,14.20
2023-05-04T01:58:54.695Z,14.10
2023-05-04T02:03:58.060Z,14.10
2023-05-04T02:09:01.364Z,14.10
2023-05-04T02:14:04.494Z,14.10
2023-05-04T02:19:07.352Z,14.00
2023-05-04T02:24:10.681Z,14.00
2023-05-04T02:29:13.853Z,14.00
2023-05-04T02:34:16.777Z,14.00
2023-05-04T02:39:20.045Z,14.00
2023-05-04T02:44:23.223Z,13.90
2023-05-04T02:49:26.405Z,13.80
2023-05-04T02:54:29.447Z,13.70
2023-05-04T02:59:32.260Z,13.70
2023-05-04T03:04:35.365Z,13.60
2023-05-04T03:09:38.511Z,13.60
2023-05-04T03:14:41.546Z,13.60
2023-05-04T03:19:44.341Z,13.60
2023-05-04T03:24:47.366Z,13.50
2023-05-04T03:29:50.795Z,13.50
2023-05-04T03:34:53.879Z,13.40
2023-05-04T03:39:56.724Z,13.40
2023-05-04T03:45:01.085Z,13.20
2023-05-04T03:50:06.604Z,13.10
2023-05-04T03:55:12.472Z,13.00
2023-05-04T04:00:16.451Z,13.00
2023-05-04T04:05:19.640Z,12.90
2023-05-04T04:10:22.643Z,12.90
2023-05-04T04:15:25.563Z,12.90
2023-05-04T04:20:28.715Z,12.90
2023-05-04T04:25:32.290Z,12.90
2023-05-04T04:30:35.332Z,12.90
2023-05-04T04:35:38.496Z,13.00
2023-05-04T04:40:42.126Z,13.00
2023-05-04T04:45:45.336Z,13.00
2023-05-04T04:50:48.808Z,13.10
2023-05-04T04:55:52.292Z,13.20
2023-05-04T05:00:58.370Z,13.30
2023-05-04T05:06:02.226Z,13.40
2023-05-04T05:11:05.514Z,13.50
2023-05-04T05:16:08.589Z,13.70
2023-05-04T05:21:11.757Z,13.80
2023-05-04T05:26:14.841Z,14.00
2023-05-04T05:31:18.388Z,14.20
2023-05-04T05:36:21.509Z,14.40
2023-05-04T05:41:24.227Z,14.50
2023-05-04T05:46:28.263Z,14.70
2023-05-04T05:51:31.424Z,14.90
2023-05-04T05:56:34.481Z,14.90
2023-05-04T06:01:37.580Z,15.10
2023-05-04T06:06:40.608Z,15.20
2023-05-04T06:11:43.778Z,15.40
2023-05-04T06:16:46.722Z,15.50
2023-05-04T06:21:49.928Z,15.70
2023-05-04T06:26:52.849Z,15.90
2023-05-04T06:31:56.952Z,16.00
2023-05-04T06:37:00.157Z,16.20
2023-05-04T06:42:03.566Z,16.30
2023-05-04T06:47:09.582Z,16.40
2023-05-04T06:52:12.516Z,16.50
2023-05-04T06:57:15.660Z,16.60
2023-05-04T07:02:18.571Z,16.70
2023-05-04T07:07:21.592Z,16.80
2023-05-04T07:12:24.545Z,16.90
2023-05-04T07:17:27.382Z,17.10
2023-05-04T07:22:34.496Z,17.30
2023-05-04T07:27:37.994Z,17.40
2023-05-04T07:32:41.628Z,17.50
2023-05-04T07:37:45.219Z,17.50
2023-05-04T07:42:48.724Z,17.70
2023-05-04T07:47:52.757Z,17.80
2023-05-04T07:52:56.044Z,17.90
2023-05-04T07:57:59.069Z,17.90
2023-05-04T08:03:02.112Z,18.20
2023-05-04T08:08:05.336Z,18.30
2023-05-04T08:13:08.409Z,18.20
2023-05-04T08:18:11.459Z,18.00
2023-05-04T08:23:14.596Z,18.00
2023-05-04T08:28:18.009Z,18.00
2023-05-04T08:33:20.940Z,18.20
2023-05-04T08:38:24.747Z,18.50
2023-05-04T08:43:29.439Z,18.80
2023-05-04T08:48:35.645Z,19.20
2023-05-04T08:53:43.542Z,19.70
2023-05-04T08:58:51.407Z,19.80
2023-05-04T09:03:55.047Z,19.90
2023-05-04T09:08:58.494Z,20.00
2023-05-04T09:14:01.563Z,20.10
2023-05-04T09:19:16.492Z,20.30
2023-05-04T09:24:31.929Z,20.60
2023-05-04T09:29:39.400Z,20.60
2023-05-04T09:34:53.870Z,20.70
2023-05-04T09:39:58.994Z,20.80
2023-05-04T09:45:10.944Z,20.90
2023-05-04T09:50:21.077Z,20.80
2023-05-04T09:55:25.350Z,20.70
2023-05-04T10:00:29.677Z,20.90
2023-05-04T10:05:32.595Z,20.90
2023-05-04T10:10:39.767Z,20.90
2023-05-04T10:16:10.218Z,21.00
2023-05-04T10:21:37.291Z,21.20
2023-05-04T10:27:05.784Z,21.40
2023-05-04T10:32:22.964Z,21.60
2023-05-04T10:37:26.225Z,21.90
2023-05-04T10:42:29.320Z,22.00
2023-05-04T10:47:38.038Z,22.10
2023-05-04T10:52:49.810Z,22.30
2023-05-04T10:57:59.363Z,22.60
2023-05-04T11:03:07.494Z,22.80
2023-05-04T11:08:24.834Z,23.00
2023-05-04T11:13:31.991Z,22.80
2023-05-04T11:18:37.396Z,22.50
2023-05-04T11:23:40.494Z,22.20
2023-05-04T11:28:44.205Z,22.00
2023-05-04T11:33:55.120Z,21.90
2023-05-04T11:38:58.654Z,21.90
2023-05-04T11:44:03.446Z,21.90
2023-05-04T11:49:06.769Z,22.10
2023-05-04T11:54:21.768Z,22.10
2023-05-04T11:59:24.966Z,22.10
2023-05-04T12:04:32.642Z,22.20
2023-05-04T12:09:49.484Z,22.20
2023-05-04T12:14:54.621Z,22.40
2023-05-04T12:19:57.877Z,22.20
2023-05-04T12:25:01.049Z,22.10
2023-05-04T12:30:04.555Z,22.00
2023-05-04T12:35:08.201Z,21.90
2023-05-04T12:40:27.346Z,21.80
2023-05-04T12:45:31.410Z,21.90
2023-05-04T12:50:34.335Z,22.20
2023-05-04T12:55:37.979Z,22.70
2023-05-04T13:00:41.365Z,23.80
2023-05-04T13:05:47.341Z,24.20
2023-05-04T13:10:51.242Z,23.90
2023-05-04T13:15:54.573Z,23.40
2023-05-04T13:20:57.845Z,23.10
2023-05-04T13:26:01.217Z,23.10
2023-05-04T13:31:09.132Z,23.40
2023-05-04T13:36:12.257Z,23.50
2023-05-04T13:41:15.842Z,23.70
2023-05-04T13:46:18.748Z,23.80
2023-05-04T13:51:21.773Z,23.30
2023-05-04T13:56:24.573Z,22.70
2023-05-04T14:01:27.703Z,22.10
2023-05-04T14:06:31.027Z,21.70
2023-05-04T14:11:34.030Z,21.40
2023-05-04T14:16:37.534Z,21.30
2023-05-04T14:21:40.993Z,21.80
2023-05-04T14:26:43.998Z,23.10
2023-05-04T14:31:47.234Z,24.10
2023-05-04T14:36:53.130Z,24.30
2023-05-04T14:41:58.013Z,25.00
2023-05-04T14:47:04.206Z,25.70
2023-05-04T14:52:08.443Z,26.10
2023-05-04T14:57:11.649Z,26.40
2023-05-04T15:02:14.834Z,26.40
2023-05-04T15:07:20.688Z,25.40
2023-05-04T15:12:26.687Z,25.00
2023-05-04T15:17:31.089Z,24.70
2023-05-04T15:22:34.081Z,24.30
2023-05-04T15:27:37.199Z,23.90
2023-05-04T15:32:40.262Z,23.20
2023-05-04T15:37:43.222Z,22.60
2023-05-04T15:42:46.674Z,22.30
2023-05-04T15:47:49.652Z,22.30
2023-05-04T15:52:53.237Z,22.70
2023-05-04T15:57:56.279Z,22.80
2023-05-04T16:03:01.237Z,22.90
2023-05-04T16:08:04.482Z,23.10
2023-05-04T16:13:08.604Z,23.10
2023-05-04T16:18:12.884Z,23.20
2023-05-04T16:23:17.806Z,23.20
2023-05-04T16:28:20.821Z,23.10
2023-05-04T16:33:25.251Z,23.00
2023-05-04T16:38:28.194Z,22.80
2023-05-04T16:43:32.076Z,22.60
2023-05-04T16:48:36.744Z,22.30
2023-05-04T16:53:39.821Z,21.70
2023-05-04T16:58:42.824Z,21.20
2023-05-04T17:03:46.005Z,20.70
2023-05-04T17:08:49.215Z,20.30
2023-05-04T17:13:52.055Z,19.90
2023-05-04T17:18:55.187Z,19.60
2023-05-04T17:23:58.279Z,19.30
2023-05-04T17:29:01.378Z,19.00
2023-05-04T17:34:04.544Z,18.70
2023-05-04T17:39:07.329Z,18.40
2023-05-04T17:44:10.805Z,18.20
2023-05-04T17:49:14.989Z,18.00
2023-05-04T17:54:18.051Z,17.80
2023-05-04T17:59:21.178Z,17.70
2023-05-04T18:04:24.248Z,17.50
2023-05-04T18:09:27.220Z,17.40
2023-05-04T18:14:30.810Z,17.20
2023-05-04T18:19:37.309Z,17.10
2023-05-04T18:24:40.035Z,17.10
2023-05-04T18:29:43.166Z,16.90
2023-05-04T18:34:51.123Z,16.80
2023-05-04T18:39:54.353Z,16.70
2023-05-04T18:44:57.519Z,16.60
2023-05-04T18:50:01.497Z,16.40
2023-05-04T18:55:06.622Z,16.30
2023-05-04T19:00:11.687Z,16.20
2023-05-04T19:05:15.249Z,16.10
2023-05-04T19:10:18.480Z,16.00
2023-05-04T19:15:23.243Z,15.90
2023-05-04T19:20:27.902Z,15.80
2023-05-04T19:25:35.093Z,15.80
2023-05-04T19:30:39.882Z,15.70
2023-05-04T19:35:42.882Z,15.70
2023-05-04T19:40:45.963Z,15.70
2023-05-04T19:45:49.697Z,15.60
2023-05-04T19:50:52.738Z,15.50
2023-05-04T19:55:55.850Z,15.40
2023-05-04T20:00:59.271Z,15.30
2023-05-04T20:06:03.638Z,15.20
2023-05-04T20:11:06.908Z,15.20
2023-05-04T20:16:09.903Z,15.10
2023-05-04T20:21:13.180Z,15.00
2023-05-04T20:26:16.496Z,14.90
2023-05-04T20:31:19.446Z,14.70
2023-05-04T20:36:22.848Z,14.60
2023-05-04T20:41:25.869Z,14.40
2023-05-04T20:46:28.972Z,14.40
2023-05-04T20:51:32.505Z,14.40
2023-05-04T20:56:35.649Z,14.40
2023-05-04T21:01:38.696Z,14.50
2023-05-04T21:06:41.988Z,14.60
2023-05-04T21:11:45.072Z,14.60
2023-05-04T21:16:48.078Z,14.60
2023-05-04T21:21:51.409Z,14.60
2023-05-04T21:26:54.343Z,14.60
2023-05-04T21:31:57.692Z,14.70
2023-05-04T21:37:00.879Z,14.70
2023-05-04T21:42:04.066Z,14.70
2023-05-04T21:47:08.414Z,14.70
2023-05-04T21:52:11.283Z,14.80
2023-05-04T21:57:14.554Z,14.80
2023-05-04T22:02:17.615Z,14.90
2023-05-04T22:07:20.559Z,15.00
2023-05-04T22:12:23.574Z,15.00
2023-05-04T22:17:26.805Z,14.90
2023-05-04T22:22:29.769Z,14.90
2023-05-04T22:27:32.788Z,14.90
2023-05-04T22:32:35.691Z,14.90
2023-05-04T22:37:38.684Z,14.80
2023-05-04T22:42:44.836Z,14.70
2023-05-04T22:47:48.004Z,14.70
2023-05-04T22:52:50.960Z,14.60
2023-05-04T22:57:54.163Z,14.50
2023-05-04T23:02:57.346Z,14.40
2023-05-04T23:08:00.492Z,14.30
2023-05-04T23:13:03.917Z,14.10
2023-05-04T23:18:07.310Z,14.00
2023-05-04T23:23:10.518Z,13.80
2023-05-04T23:28:13.481Z,13.70
2023-05-04T23:33:16.487Z,13.60
2023-05-04T23:38:19.418Z,13.50
2023-05-04T23:43:23.781Z,13.30
2023-05-04T23:48:28.352Z,13.20
2023-05-04T23:53:32.170Z,13.00
2023-05-04T23:58:35.626Z,12.80
